createdAt,value
2023-10-06T18:29:51.463Z,24.97
2023-10-06T18:32:18.447Z,25.08
2023-10-06T18:34:45.435Z,25.20
2023-10-06T18:37:12.826Z,25.31
2023-10-06T18:39:40.270Z,25.40
2023-10-06T18:42:08.524Z,25.49
2023-10-06T18:44:35.467Z,25.58
2023-10-06T18:47:02.293Z,25.67
2023-10-06T18:49:29.068Z,25.73
2023-10-06T18:51:55.911Z,25.81
2023-10-06T18:54:24.320Z,25.85
2023-10-06T18:56:51.249Z,25.88
2023-10-06T18:59:18.101Z,25.96
2023-10-06T19:01:45.375Z,25.99
2023-10-06T19:04:12.390Z,26.03
2023-10-06T19:06:41.547Z,26.06
2023-10-06T19:09:11.506Z,26.03
2023-10-06T19:11:38.910Z,25.95
2023-10-06T19:14:06.251Z,25.97
2023-10-06T19:16:33.435Z,25.98
2023-10-06T19:19:01.166Z,26.06
2023-10-06T19:21:28.353Z,26.11
2023-10-06T19:23:55.836Z,26.11
2023-10-06T19:26:23.488Z,26.12
2023-10-06T19:28:50.821Z,26.06
2023-10-06T19:31:18.069Z,26.00
2023-10-06T19:33:52.246Z,26.00
2023-10-06T19:36:21.231Z,26.00
2023-10-06T19:38:49.048Z,25.94
2023-10-06T19:41:16.492Z,25.94
2023-10-06T19:43:43.644Z,25.93
2023-10-06T19:46:11.729Z,25.95
2023-10-06T19:48:39.913Z,25.94
2023-10-06T19:51:10.320Z,25.95
2023-10-06T19:53:37.429Z,25.95
2023-10-06T19:56:04.963Z,25.91
2023-10-06T19:58:32.782Z,25.94
2023-10-06T20:01:00.103Z,25.93
2023-10-06T20:03:27.610Z,25.96
2023-10-06T20:05:57.268Z,25.97
2023-10-06T20:08:24.866Z,25.95
2023-10-06T20:10:56.113Z,25.96
2023-10-06T20:13:28.010Z,25.96
2023-10-06T20:15:54.938Z,25.93
2023-10-06T20:18:22.014Z,25.92
2023-10-06T20:20:48.950Z,25.89
2023-10-06T20:23:15.833Z,25.91
2023-10-06T20:25:42.878Z,25.93
2023-10-06T20:28:11.114Z,25.94
2023-10-06T20:30:41.397Z,25.93
2023-10-06T20:33:08.271Z,25.97
2023-10-06T20:35:35.913Z,25.99
2023-10-06T20:38:04.603Z,26.02
2023-10-06T20:40:34.033Z,25.98
2023-10-06T20:43:07.888Z,26.00
2023-10-06T20:45:34.931Z,26.04
2023-10-06T20:48:10.858Z,25.97
2023-10-06T20:50:39.892Z,25.96
2023-10-06T20:53:08.627Z,25.95
2023-10-06T20:55:36.971Z,25.97
2023-10-06T20:58:03.985Z,25.95
2023-10-06T21:00:31.045Z,25.95
2023-10-06T21:02:58.933Z,25.96
2023-10-06T21:05:26.468Z,25.93
2023-10-06T21:07:53.670Z,25.95
2023-10-06T21:10:21.743Z,25.87
2023-10-06T21:12:48.727Z,25.89
2023-10-06T21:15:16.069Z,25.86
2023-10-06T21:17:43.810Z,25.85
2023-10-06T21:20:13.626Z,25.79
2023-10-06T21:22:41.268Z,25.75
2023-10-06T21:25:18.282Z,25.77
2023-10-06T21:27:46.870Z,25.73
2023-10-06T21:30:17.245Z,25.71
2023-10-06T21:32:45.735Z,25.69
2023-10-06T21:35:16.182Z,25.73
2023-10-06T21:37:43.814Z,25.72
2023-10-06T21:40:13.147Z,25.71
2023-10-06T21:42:41.855Z,25.71
2023-10-06T21:45:10.041Z,25.72
2023-10-06T21:47:37.148Z,25.81
2023-10-06T21:50:04.641Z,25.80
2023-10-06T21:52:32.383Z,25.79
2023-10-06T21:54:59.797Z,25.76
2023-10-06T21:57:31.596Z,25.70
2023-10-06T21:59:58.755Z,25.62
2023-10-06T22:02:25.843Z,25.59
2023-10-06T22:04:54.543Z,25.45
2023-10-06T22:07:22.238Z,25.47
2023-10-06T22:09:49.067Z,25.48
2023-10-06T22:12:16.548Z,25.48
2023-10-06T22:14:43.783Z,25.48
2023-10-06T22:17:13.814Z,25.49
2023-10-06T22:19:42.101Z,25.46
2023-10-06T22:22:09.190Z,25.39
2023-10-06T22:24:35.970Z,25.40
2023-10-06T22:27:08.106Z,25.37
2023-10-06T22:29:35.648Z,25.36
2023-10-06T22:32:02.684Z,25.34
2023-10-06T22:34:29.612Z,25.32
2023-10-06T22:37:01.683Z,25.30
2023-10-06T22:39:32.022Z,25.28
2023-10-06T22:41:58.802Z,25.28
2023-10-06T22:44:25.623Z,25.27
2023-10-06T22:46:55.226Z,25.27
2023-10-06T22:49:22.638Z,25.26
2023-10-06T22:51:50.873Z,25.22
2023-10-06T22:54:18.655Z,25.21
2023-10-06T22:56:45.562Z,25.20
2023-10-06T22:59:12.578Z,25.16
2023-10-06T23:01:39.639Z,25.15
2023-10-06T23:04:07.994Z,25.13
2023-10-06T23:06:34.942Z,25.12
2023-10-06T23:09:02.393Z,25.11
2023-10-06T23:11:29.361Z,25.07
2023-10-06T23:13:56.195Z,25.07
2023-10-06T23:16:23.350Z,25.05
2023-10-06T23:18:50.806Z,24.98
2023-10-06T23:21:17.615Z,24.97
2023-10-06T23:23:46.518Z,24.96
2023-10-06T23:26:14.178Z,24.95
2023-10-06T23:28:41.128Z,24.93
2023-10-06T23:31:08.040Z,24.87
2023-10-06T23:33:35.259Z,24.87
2023-10-06T23:36:03.259Z,24.86
2023-10-06T23:38:30.564Z,24.84
2023-10-06T23:41:02.266Z,24.83
2023-10-06T23:43:31.359Z,24.80
2023-10-06T23:45:58.706Z,24.79
2023-10-06T23:48:29.697Z,24.78
2023-10-06T23:51:10.275Z,24.76
2023-10-06T23:53:38.046Z,24.74
2023-10-06T23:56:23.854Z,24.73
2023-10-06T23:58:54.280Z,24.72
